sensor_id;sensor_type;location;lat;lon;timestamp;P1;durP1;ratioP1;P2;durP2;ratioP2
51515;SDS011;37603;55.614;37.326;2022-09-09T00:04:53;4.9;;;3.1;;
51515;SDS011;37603;55.614;37.326;2022-09-09T00:10:49;3.7;;;2.7;;
51515;SDS011;37603;55.614;37.326;2022-09-09T00:22:47;4.1;;;2.8;;
51515;SDS011;37603;55.614;37.326;2022-09-09T00:28:46;5.0;;;2.7;;
51515;SDS011;37603;55.614;37.326;2022-09-09T00:34:46;4.0;;;2.8;;
51515;SDS011;37603;55.614;37.326;2022-09-09T00:40:45;3.3;;;2.5;;
51515;SDS011;37603;55.614;37.326;2022-09-09T00:46:47;5.2;;;3.1;;
51515;SDS011;37603;55.614;37.326;2022-09-09T00:52:43;5.7;;;2.9;;
51515;SDS011;37603;55.614;37.326;2022-09-09T00:58:40;3.5;;;2.8;;
51515;SDS011;37603;55.614;37.326;2022-09-09T01:04:38;6.8;;;3.1;;
51515;SDS011;37603;55.614;37.326;2022-09-09T01:10:39;3.8;;;2.7;;
51515;SDS011;37603;55.614;37.326;2022-09-09T01:16:36;3.4;;;2.7;;
51515;SDS011;37603;55.614;37.326;2022-09-09T01:22:36;4.3;;;2.8;;
51515;SDS011;37603;55.614;37.326;2022-09-09T01:28:34;4.5;;;2.6;;
51515;SDS011;37603;55.614;37.326;2022-09-09T01:34:33;4.3;;;2.8;;
51515;SDS011;37603;55.614;37.326;2022-09-09T01:40:32;4.2;;;3.0;;
51515;SDS011;37603;55.614;37.326;2022-09-09T01:46:30;4.4;;;3.1;;
51515;SDS011;37603;55.614;37.326;2022-09-09T01:52:29;3.3;;;2.8;;
51515;SDS011;37603;55.614;37.326;2022-09-09T01:58:31;4.4;;;2.7;;
51515;SDS011;37603;55.614;37.326;2022-09-09T02:04:31;3.9;;;2.8;;
51515;SDS011;37603;55.614;37.326;2022-09-09T02:10:28;3.7;;;2.8;;
51515;SDS011;37603;55.614;37.326;2022-09-09T02:16:26;4.6;;;3.2;;
51515;SDS011;37603;55.614;37.326;2022-09-09T02:22:24;5.4;;;3.0;;
51515;SDS011;37603;55.614;37.326;2022-09-09T02:28:22;4.4;;;2.8;;
51515;SDS011;37603;55.614;37.326;2022-09-09T02:34:21;3.2;;;2.9;;
51515;SDS011;37603;55.614;37.326;2022-09-09T02:40:20;3.4;;;2.9;;
51515;SDS011;37603;55.614;37.326;2022-09-09T02:46:24;4.1;;;3.2;;
51515;SDS011;37603;55.614;37.326;2022-09-09T02:52:18;3.7;;;2.9;;
51515;SDS011;37603;55.614;37.326;2022-09-09T03:04:15;3.5;;;3.0;;
51515;SDS011;37603;55.614;37.326;2022-09-09T03:10:14;3.7;;;3.2;;
51515;SDS011;37603;55.614;37.326;2022-09-09T03:16:13;3.2;;;2.9;;
51515;SDS011;37603;55.614;37.326;2022-09-09T03:22:12;4.4;;;3.0;;
51515;SDS011;37603;55.614;37.326;2022-09-09T03:28:11;4.8;;;3.5;;
51515;SDS011;37603;55.614;37.326;2022-09-09T03:34:10;5.7;;;3.3;;
51515;SDS011;37603;55.614;37.326;2022-09-09T03:40:09;5.1;;;3.4;;
51515;SDS011;37603;55.614;37.326;2022-09-09T03:46:07;5.2;;;3.3;;
51515;SDS011;37603;55.614;37.326;2022-09-09T03:52:07;3.1;;;2.8;;
51515;SDS011;37603;55.614;37.326;2022-09-09T03:58:05;4.2;;;3.2;;
51515;SDS011;37603;55.614;37.326;2022-09-09T04:04:04;4.6;;;2.8;;
51515;SDS011;37603;55.614;37.326;2022-09-09T04:10:03;3.4;;;2.5;;
51515;SDS011;37603;55.614;37.326;2022-09-09T04:16:02;3.1;;;2.6;;
51515;SDS011;37603;55.614;37.326;2022-09-09T04:22:00;4.1;;;2.6;;
51515;SDS011;37603;55.614;37.326;2022-09-09T04:27:59;3.7;;;2.3;;
51515;SDS011;37603;55.614;37.326;2022-09-09T04:33:58;3.6;;;2.2;;
51515;SDS011;37603;55.614;37.326;2022-09-09T04:39:57;2.9;;;2.0;;
51515;SDS011;37603;55.614;37.326;2022-09-09T04:45:56;2.5;;;2.3;;
51515;SDS011;37603;55.614;37.326;2022-09-09T04:51:55;4.1;;;2.2;;
51515;SDS011;37603;55.614;37.326;2022-09-09T04:57:54;3.4;;;2.0;;
51515;SDS011;37603;55.614;37.326;2022-09-09T05:03:52;3.3;;;2.4;;
51515;SDS011;37603;55.614;37.326;2022-09-09T05:09:51;2.9;;;2.1;;
51515;SDS011;37603;55.614;37.326;2022-09-09T05:15:52;2.7;;;1.8;;
51515;SDS011;37603;55.614;37.326;2022-09-09T05:21:49;3.1;;;2.1;;
51515;SDS011;37603;55.614;37.326;2022-09-09T05:27:48;2.2;;;2.0;;
51515;SDS011;37603;55.614;37.326;2022-09-09T05:33:47;3.4;;;2.1;;
51515;SDS011;37603;55.614;37.326;2022-09-09T05:39:46;3.3;;;2.2;;
51515;SDS011;37603;55.614;37.326;2022-09-09T05:45:45;3.6;;;1.7;;
51515;SDS011;37603;55.614;37.326;2022-09-09T05:51:44;2.4;;;1.8;;
51515;SDS011;37603;55.614;37.326;2022-09-09T05:57:47;3.8;;;1.9;;
51515;SDS011;37603;55.614;37.326;2022-09-09T06:03:43;1.8;;;1.5;;
51515;SDS011;37603;55.614;37.326;2022-09-09T06:09:41;2.1;;;1.4;;
51515;SDS011;37603;55.614;37.326;2022-09-09T06:15:44;2.6;;;1.3;;
51515;SDS011;37603;55.614;37.326;2022-09-09T06:21:39;2.4;;;1.7;;
51515;SDS011;37603;55.614;37.326;2022-09-09T06:27:38;4.1;;;1.5;;
51515;SDS011;37603;55.614;37.326;2022-09-09T06:33:38;2.8;;;1.3;;
51515;SDS011;37603;55.614;37.326;2022-09-09T06:39:36;2.3;;;1.2;;
51515;SDS011;37603;55.614;37.326;2022-09-09T06:51:36;2.2;;;1.2;;
51515;SDS011;37603;55.614;37.326;2022-09-09T06:57:34;2.0;;;1.3;;
51515;SDS011;37603;55.614;37.326;2022-09-09T07:03:33;1.6;;;0.9;;
51515;SDS011;37603;55.614;37.326;2022-09-09T07:09:32;1.4;;;1.1;;
51515;SDS011;37603;55.614;37.326;2022-09-09T07:15:31;1.6;;;1.0;;
51515;SDS011;37603;55.614;37.326;2022-09-09T07:21:31;2.5;;;0.9;;
51515;SDS011;37603;55.614;37.326;2022-09-09T07:27:30;1.8;;;0.8;;
51515;SDS011;37603;55.614;37.326;2022-09-09T07:33:29;1.6;;;0.9;;
51515;SDS011;37603;55.614;37.326;2022-09-09T07:39:28;1.4;;;0.8;;
51515;SDS011;37603;55.614;37.326;2022-09-09T07:45:27;1.5;;;0.7;;
51515;SDS011;37603;55.614;37.326;2022-09-09T07:51:27;4.7;;;0.8;;
51515;SDS011;37603;55.614;37.326;2022-09-09T07:57:26;3.6;;;1.0;;
51515;SDS011;37603;55.614;37.326;2022-09-09T08:03:25;3.1;;;0.8;;
51515;SDS011;37603;55.614;37.326;2022-09-09T08:09:25;2.6;;;0.9;;
51515;SDS011;37603;55.614;37.326;2022-09-09T08:15:23;2.2;;;1.0;;
51515;SDS011;37603;55.614;37.326;2022-09-09T08:21:23;2.8;;;0.8;;
51515;SDS011;37603;55.614;37.326;2022-09-09T08:27:22;1.9;;;0.8;;
51515;SDS011;37603;55.614;37.326;2022-09-09T08:33:21;2.5;;;0.8;;
51515;SDS011;37603;55.614;37.326;2022-09-09T08:39:21;2.1;;;0.7;;
51515;SDS011;37603;55.614;37.326;2022-09-09T08:45:23;1.5;;;0.8;;
51515;SDS011;37603;55.614;37.326;2022-09-09T08:51:19;2.0;;;1.0;;
51515;SDS011;37603;55.614;37.326;2022-09-09T08:57:20;2.6;;;1.0;;
51515;SDS011;37603;55.614;37.326;2022-09-09T09:03:19;1.6;;;0.9;;
51515;SDS011;37603;55.614;37.326;2022-09-09T09:09:18;1.3;;;0.8;;
51515;SDS011;37603;55.614;37.326;2022-09-09T09:15:16;1.8;;;0.7;;
51515;SDS011;37603;55.614;37.326;2022-09-09T09:21:16;3.7;;;0.9;;
51515;SDS011;37603;55.614;37.326;2022-09-09T09:27:15;1.8;;;0.8;;
51515;SDS011;37603;55.614;37.326;2022-09-09T09:33:14;1.9;;;0.8;;
51515;SDS011;37603;55.614;37.326;2022-09-09T09:39:22;2.1;;;0.9;;
51515;SDS011;37603;55.614;37.326;2022-09-09T09:45:14;2.0;;;1.0;;
51515;SDS011;37603;55.614;37.326;2022-09-09T09:51:11;1.9;;;0.9;;
51515;SDS011;37603;55.614;37.326;2022-09-09T09:57:10;2.7;;;0.9;;
51515;SDS011;37603;55.614;37.326;2022-09-09T10:03:14;1.6;;;0.9;;
51515;SDS011;37603;55.614;37.326;2022-09-09T10:09:18;1.4;;;0.7;;
51515;SDS011;37603;55.614;37.326;2022-09-09T10:15:12;2.4;;;0.7;;
51515;SDS011;37603;55.614;37.326;2022-09-09T10:21:10;1.2;;;0.8;;
51515;SDS011;37603;55.614;37.326;2022-09-09T10:27:10;1.3;;;0.8;;
51515;SDS011;37603;55.614;37.326;2022-09-09T10:33:08;1.6;;;0.6;;
51515;SDS011;37603;55.614;37.326;2022-09-09T10:39:06;1.4;;;0.7;;
51515;SDS011;37603;55.614;37.326;2022-09-09T10:45:07;1.0;;;0.6;;
51515;SDS011;37603;55.614;37.326;2022-09-09T10:51:09;3.3;;;0.6;;
51515;SDS011;37603;55.614;37.326;2022-09-09T10:57:03;1.0;;;0.6;;
51515;SDS011;37603;55.614;37.326;2022-09-09T11:03:02;1.3;;;0.5;;
51515;SDS011;37603;55.614;37.326;2022-09-09T11:09:01;1.4;;;0.5;;
51515;SDS011;37603;55.614;37.326;2022-09-09T11:15:03;1.6;;;0.5;;
51515;SDS011;37603;55.614;37.326;2022-09-09T11:21:00;0.9;;;0.5;;
51515;SDS011;37603;55.614;37.326;2022-09-09T11:27:00;1.3;;;0.6;;
51515;SDS011;37603;55.614;37.326;2022-09-09T11:38:58;1.5;;;0.5;;
51515;SDS011;37603;55.614;37.326;2022-09-09T11:44:56;0.9;;;0.6;;
51515;SDS011;37603;55.614;37.326;2022-09-09T11:50:57;0.8;;;0.7;;
51515;SDS011;37603;55.614;37.326;2022-09-09T11:56:55;0.7;;;0.6;;
51515;SDS011;37603;55.614;37.326;2022-09-09T12:02:54;1.7;;;0.6;;
51515;SDS011;37603;55.614;37.326;2022-09-09T12:08:55;1.5;;;0.7;;
51515;SDS011;37603;55.614;37.326;2022-09-09T12:14:55;1.7;;;0.7;;
51515;SDS011;37603;55.614;37.326;2022-09-09T12:20:54;1.2;;;0.7;;
51515;SDS011;37603;55.614;37.326;2022-09-09T12:26:52;0.9;;;0.6;;
51515;SDS011;37603;55.614;37.326;2022-09-09T12:32:58;1.2;;;0.5;;
51515;SDS011;37603;55.614;37.326;2022-09-09T12:38:50;2.1;;;0.6;;
51515;SDS011;37603;55.614;37.326;2022-09-09T12:44:50;1.1;;;0.8;;
51515;SDS011;37603;55.614;37.326;2022-09-09T12:50:48;1.8;;;0.8;;
51515;SDS011;37603;55.614;37.326;2022-09-09T12:56:47;2.4;;;0.9;;
51515;SDS011;37603;55.614;37.326;2022-09-09T13:02:48;1.9;;;0.8;;
51515;SDS011;37603;55.614;37.326;2022-09-09T13:08:46;0.8;;;0.6;;
51515;SDS011;37603;55.614;37.326;2022-09-09T13:14:46;1.9;;;0.8;;
51515;SDS011;37603;55.614;37.326;2022-09-09T13:20:45;1.8;;;0.9;;
51515;SDS011;37603;55.614;37.326;2022-09-09T13:26:44;2.4;;;0.7;;
51515;SDS011;37603;55.614;37.326;2022-09-09T13:32:43;1.4;;;0.7;;
51515;SDS011;37603;55.614;37.326;2022-09-09T13:44:41;2.7;;;0.9;;
51515;SDS011;37603;55.614;37.326;2022-09-09T13:50:41;1.7;;;0.7;;
51515;SDS011;37603;55.614;37.326;2022-09-09T13:56:40;0.8;;;0.6;;
51515;SDS011;37603;55.614;37.326;2022-09-09T14:02:39;1.0;;;0.7;;
51515;SDS011;37603;55.614;37.326;2022-09-09T14:08:39;3.3;;;0.8;;
51515;SDS011;37603;55.614;37.326;2022-09-09T14:14:38;1.3;;;0.7;;
51515;SDS011;37603;55.614;37.326;2022-09-09T14:20:37;1.4;;;0.6;;
51515;SDS011;37603;55.614;37.326;2022-09-09T14:26:36;1.8;;;0.9;;
51515;SDS011;37603;55.614;37.326;2022-09-09T14:32:36;1.0;;;0.6;;
51515;SDS011;37603;55.614;37.326;2022-09-09T14:38:35;1.5;;;0.7;;
51515;SDS011;37603;55.614;37.326;2022-09-09T14:44:34;1.4;;;0.7;;
51515;SDS011;37603;55.614;37.326;2022-09-09T14:50:34;1.6;;;0.9;;
51515;SDS011;37603;55.614;37.326;2022-09-09T14:56:33;1.4;;;0.9;;
51515;SDS011;37603;55.614;37.326;2022-09-09T15:02:32;1.3;;;0.7;;
51515;SDS011;37603;55.614;37.326;2022-09-09T15:08:31;3.6;;;1.3;;
51515;SDS011;37603;55.614;37.326;2022-09-09T15:14:31;3.2;;;1.4;;
51515;SDS011;37603;55.614;37.326;2022-09-09T15:20:30;2.6;;;1.2;;
51515;SDS011;37603;55.614;37.326;2022-09-09T15:26:30;2.8;;;1.2;;
51515;SDS011;37603;55.614;37.326;2022-09-09T15:32:28;3.1;;;1.8;;
51515;SDS011;37603;55.614;37.326;2022-09-09T15:38:28;2.6;;;1.1;;
51515;SDS011;37603;55.614;37.326;2022-09-09T15:44:27;2.0;;;1.1;;
51515;SDS011;37603;55.614;37.326;2022-09-09T15:50:26;2.3;;;1.3;;
51515;SDS011;37603;55.614;37.326;2022-09-09T15:56:26;5.4;;;1.5;;
51515;SDS011;37603;55.614;37.326;2022-09-09T16:02:25;3.1;;;1.4;;
51515;SDS011;37603;55.614;37.326;2022-09-09T16:08:24;2.1;;;1.3;;
51515;SDS011;37603;55.614;37.326;2022-09-09T16:14:23;3.7;;;1.5;;
51515;SDS011;37603;55.614;37.326;2022-09-09T16:20:22;3.0;;;1.2;;
51515;SDS011;37603;55.614;37.326;2022-09-09T16:32:21;2.9;;;1.6;;
51515;SDS011;37603;55.614;37.326;2022-09-09T16:38:20;3.8;;;1.9;;
51515;SDS011;37603;55.614;37.326;2022-09-09T16:56:18;8.6;;;4.6;;
51515;SDS011;37603;55.614;37.326;2022-09-09T17:02:16;23.0;;;13.2;;
51515;SDS011;37603;55.614;37.326;2022-09-09T17:08:15;28.9;;;16.9;;
51515;SDS011;37603;55.614;37.326;2022-09-09T17:14:15;30.5;;;18.9;;
51515;SDS011;37603;55.614;37.326;2022-09-09T17:20:13;18.5;;;11.7;;
51515;SDS011;37603;55.614;37.326;2022-09-09T17:26:13;18.1;;;11.3;;
51515;SDS011;37603;55.614;37.326;2022-09-09T17:32:12;26.0;;;15.0;;
51515;SDS011;37603;55.614;37.326;2022-09-09T17:38:11;22.0;;;12.8;;
51515;SDS011;37603;55.614;37.326;2022-09-09T17:44:10;17.8;;;11.0;;
51515;SDS011;37603;55.614;37.326;2022-09-09T17:50:09;20.7;;;13.1;;
51515;SDS011;37603;55.614;37.326;2022-09-09T17:56:09;42.6;;;30.3;;
51515;SDS011;37603;55.614;37.326;2022-09-09T18:02:08;28.5;;;20.3;;
51515;SDS011;37603;55.614;37.326;2022-09-09T18:14:05;23.8;;;17.9;;
51515;SDS011;37603;55.614;37.326;2022-09-09T18:20:04;27.2;;;20.1;;
51515;SDS011;37603;55.614;37.326;2022-09-09T18:26:06;27.5;;;18.4;;
51515;SDS011;37603;55.614;37.326;2022-09-09T18:32:02;27.4;;;18.3;;
51515;SDS011;37603;55.614;37.326;2022-09-09T18:38:01;26.3;;;19.7;;
51515;SDS011;37603;55.614;37.326;2022-09-09T18:44:00;27.5;;;19.2;;
51515;SDS011;37603;55.614;37.326;2022-09-09T18:49:59;26.3;;;20.3;;
51515;SDS011;37603;55.614;37.326;2022-09-09T18:55:58;27.1;;;19.1;;
51515;SDS011;37603;55.614;37.326;2022-09-09T19:01:57;24.5;;;16.5;;
51515;SDS011;37603;55.614;37.326;2022-09-09T19:07:55;26.1;;;17.6;;
51515;SDS011;37603;55.614;37.326;2022-09-09T19:13:55;22.3;;;14.2;;
51515;SDS011;37603;55.614;37.326;2022-09-09T19:19:53;18.2;;;13.4;;
51515;SDS011;37603;55.614;37.326;2022-09-09T19:25:52;19.7;;;14.2;;
51515;SDS011;37603;55.614;37.326;2022-09-09T19:31:52;18.5;;;12.5;;
51515;SDS011;37603;55.614;37.326;2022-09-09T19:37:50;20.1;;;12.3;;
51515;SDS011;37603;55.614;37.326;2022-09-09T19:43:49;21.0;;;14.2;;
51515;SDS011;37603;55.614;37.326;2022-09-09T19:49:48;19.9;;;13.1;;
51515;SDS011;37603;55.614;37.326;2022-09-09T19:55:47;21.9;;;14.9;;
51515;SDS011;37603;55.614;37.326;2022-09-09T20:01:46;23.4;;;16.3;;
51515;SDS011;37603;55.614;37.326;2022-09-09T20:07:45;22.4;;;15.1;;
51515;SDS011;37603;55.614;37.326;2022-09-09T20:13:44;20.9;;;14.3;;
51515;SDS011;37603;55.614;37.326;2022-09-09T20:19:43;23.9;;;16.2;;
51515;SDS011;37603;55.614;37.326;2022-09-09T20:25:42;23.5;;;17.4;;
51515;SDS011;37603;55.614;37.326;2022-09-09T20:31:41;25.0;;;16.9;;
51515;SDS011;37603;55.614;37.326;2022-09-09T20:37:39;22.2;;;16.3;;
51515;SDS011;37603;55.614;37.326;2022-09-09T20:43:39;25.1;;;16.2;;
51515;SDS011;37603;55.614;37.326;2022-09-09T20:49:37;24.2;;;15.8;;
51515;SDS011;37603;55.614;37.326;2022-09-09T20:55:36;25.8;;;17.1;;
51515;SDS011;37603;55.614;37.326;2022-09-09T21:01:35;23.7;;;16.0;;
51515;SDS011;37603;55.614;37.326;2022-09-09T21:07:34;24.6;;;15.5;;
51515;SDS011;37603;55.614;37.326;2022-09-09T21:13:34;21.3;;;15.7;;
51515;SDS011;37603;55.614;37.326;2022-09-09T21:19:32;26.8;;;17.3;;
51515;SDS011;37603;55.614;37.326;2022-09-09T21:25:31;26.4;;;18.0;;
51515;SDS011;37603;55.614;37.326;2022-09-09T21:31:30;26.3;;;18.6;;
51515;SDS011;37603;55.614;37.326;2022-09-09T21:37:28;24.0;;;16.2;;
51515;SDS011;37603;55.614;37.326;2022-09-09T21:43:27;28.4;;;19.1;;
51515;SDS011;37603;55.614;37.326;2022-09-09T21:49:26;26.2;;;17.7;;
51515;SDS011;37603;55.614;37.326;2022-09-09T21:55:25;25.0;;;18.2;;
51515;SDS011;37603;55.614;37.326;2022-09-09T22:01:24;26.6;;;18.7;;
51515;SDS011;37603;55.614;37.326;2022-09-09T22:07:23;28.5;;;19.8;;
51515;SDS011;37603;55.614;37.326;2022-09-09T22:13:22;31.3;;;20.7;;
51515;SDS011;37603;55.614;37.326;2022-09-09T22:19:21;26.3;;;19.2;;
51515;SDS011;37603;55.614;37.326;2022-09-09T22:25:19;26.4;;;19.6;;
51515;SDS011;37603;55.614;37.326;2022-09-09T22:31:18;31.4;;;21.9;;
51515;SDS011;37603;55.614;37.326;2022-09-09T22:37:17;29.6;;;20.1;;
51515;SDS011;37603;55.614;37.326;2022-09-09T22:43:17;25.7;;;19.9;;
51515;SDS011;37603;55.614;37.326;2022-09-09T22:49:15;27.9;;;20.3;;
51515;SDS011;37603;55.614;37.326;2022-09-09T22:55:14;34.0;;;21.3;;
51515;SDS011;37603;55.614;37.326;2022-09-09T23:01:14;30.6;;;20.7;;
51515;SDS011;37603;55.614;37.326;2022-09-09T23:07:12;33.3;;;21.6;;
51515;SDS011;37603;55.614;37.326;2022-09-09T23:13:10;34.0;;;23.4;;
51515;SDS011;37603;55.614;37.326;2022-09-09T23:19:10;28.7;;;21.6;;
51515;SDS011;37603;55.614;37.326;2022-09-09T23:25:08;33.7;;;23.6;;
51515;SDS011;37603;55.614;37.326;2022-09-09T23:31:07;26.3;;;19.8;;
51515;SDS011;37603;55.614;37.326;2022-09-09T23:37:06;28.4;;;20.2;;
51515;SDS011;37603;55.614;37.326;2022-09-09T23:43:05;26.0;;;19.2;;
51515;SDS011;37603;55.614;37.326;2022-09-09T23:49:04;24.4;;;18.2;;
51515;SDS011;37603;55.614;37.326;2022-09-09T23:55:03;26.4;;;17.8;;
